sensor_id;sensor_type;location;lat;lon;timestamp;P1;durP1;ratioP1;P2;durP2;ratioP2
51987;SDS011;38003;52.012;4.346;2023-04-25T00:01:37;18.07;;;3.40;;
51987;SDS011;38003;52.012;4.346;2023-04-25T00:04:05;9.07;;;3.00;;
51987;SDS011;38003;52.012;4.346;2023-04-25T00:06:34;11.30;;;2.77;;
51987;SDS011;38003;52.012;4.346;2023-04-25T00:09:03;11.10;;;3.03;;
51987;SDS011;38003;52.012;4.346;2023-04-25T00:11:34;13.93;;;3.57;;
51987;SDS011;38003;52.012;4.346;2023-04-25T00:14:04;11.27;;;2.70;;
51987;SDS011;38003;52.012;4.346;2023-04-25T00:16:32;12.80;;;3.30;;
51987;SDS011;38003;52.012;4.346;2023-04-25T00:19:02;9.97;;;2.90;;
51987;SDS011;38003;52.012;4.346;2023-04-25T00:21:30;11.73;;;2.90;;
51987;SDS011;38003;52.012;4.346;2023-04-25T00:23:59;15.67;;;3.03;;
51987;SDS011;38003;52.012;4.346;2023-04-25T00:26:27;14.53;;;3.37;;
51987;SDS011;38003;52.012;4.346;2023-04-25T00:28:56;12.13;;;3.30;;
51987;SDS011;38003;52.012;4.346;2023-04-25T00:31:25;11.50;;;2.90;;
51987;SDS011;38003;52.012;4.346;2023-04-25T00:33:53;10.03;;;2.83;;
51987;SDS011;38003;52.012;4.346;2023-04-25T00:36:21;9.73;;;2.70;;
51987;SDS011;38003;52.012;4.346;2023-04-25T00:38:50;11.67;;;2.77;;
51987;SDS011;38003;52.012;4.346;2023-04-25T00:41:18;10.50;;;2.83;;
51987;SDS011;38003;52.012;4.346;2023-04-25T00:43:46;16.73;;;3.03;;
51987;SDS011;38003;52.012;4.346;2023-04-25T00:46:17;9.77;;;2.70;;
51987;SDS011;38003;52.012;4.346;2023-04-25T00:48:46;11.10;;;2.63;;
51987;SDS011;38003;52.012;4.346;2023-04-25T00:51:15;11.10;;;2.77;;
51987;SDS011;38003;52.012;4.346;2023-04-25T00:53:44;10.07;;;2.90;;
51987;SDS011;38003;52.012;4.346;2023-04-25T00:56:12;9.77;;;2.80;;
51987;SDS011;38003;52.012;4.346;2023-04-25T00:58:41;14.03;;;3.27;;
51987;SDS011;38003;52.012;4.346;2023-04-25T01:01:09;12.73;;;2.80;;
51987;SDS011;38003;52.012;4.346;2023-04-25T01:03:39;13.50;;;3.00;;
51987;SDS011;38003;52.012;4.346;2023-04-25T01:06:08;12.10;;;2.90;;
51987;SDS011;38003;52.012;4.346;2023-04-25T01:08:37;11.10;;;2.80;;
51987;SDS011;38003;52.012;4.346;2023-04-25T01:11:05;12.20;;;2.70;;
51987;SDS011;38003;52.012;4.346;2023-04-25T01:13:34;8.43;;;2.33;;
51987;SDS011;38003;52.012;4.346;2023-04-25T01:16:03;11.23;;;2.93;;
51987;SDS011;38003;52.012;4.346;2023-04-25T01:18:31;12.20;;;2.70;;
51987;SDS011;38003;52.012;4.346;2023-04-25T01:21:03;13.00;;;2.70;;
51987;SDS011;38003;52.012;4.346;2023-04-25T01:23:34;9.67;;;3.00;;
51987;SDS011;38003;52.012;4.346;2023-04-25T01:26:03;12.47;;;2.80;;
51987;SDS011;38003;52.012;4.346;2023-04-25T01:28:32;13.87;;;2.90;;
51987;SDS011;38003;52.012;4.346;2023-04-25T01:31:00;11.20;;;3.10;;
51987;SDS011;38003;52.012;4.346;2023-04-25T01:33:29;8.83;;;2.33;;
51987;SDS011;38003;52.012;4.346;2023-04-25T01:35:57;12.23;;;2.90;;
51987;SDS011;38003;52.012;4.346;2023-04-25T01:38:27;15.37;;;3.43;;
51987;SDS011;38003;52.012;4.346;2023-04-25T01:40:55;15.57;;;3.17;;
51987;SDS011;38003;52.012;4.346;2023-04-25T01:43:24;10.63;;;2.83;;
51987;SDS011;38003;52.012;4.346;2023-04-25T01:45:52;11.27;;;2.70;;
51987;SDS011;38003;52.012;4.346;2023-04-25T01:48:21;10.33;;;2.13;;
51987;SDS011;38003;52.012;4.346;2023-04-25T01:50:49;11.60;;;2.80;;
51987;SDS011;38003;52.012;4.346;2023-04-25T01:53:17;9.90;;;2.70;;
51987;SDS011;38003;52.012;4.346;2023-04-25T01:55:46;11.23;;;2.63;;
51987;SDS011;38003;52.012;4.346;2023-04-25T01:58:15;12.20;;;3.20;;
51987;SDS011;38003;52.012;4.346;2023-04-25T02:00:43;12.20;;;2.77;;
51987;SDS011;38003;52.012;4.346;2023-04-25T02:03:11;10.97;;;2.63;;
51987;SDS011;38003;52.012;4.346;2023-04-25T02:05:40;10.67;;;2.53;;
51987;SDS011;38003;52.012;4.346;2023-04-25T02:08:08;8.03;;;2.37;;
51987;SDS011;38003;52.012;4.346;2023-04-25T02:10:36;11.57;;;2.60;;
51987;SDS011;38003;52.012;4.346;2023-04-25T02:13:06;12.90;;;2.43;;
51987;SDS011;38003;52.012;4.346;2023-04-25T02:15:34;9.03;;;2.77;;
51987;SDS011;38003;52.012;4.346;2023-04-25T02:18:03;10.57;;;2.87;;
51987;SDS011;38003;52.012;4.346;2023-04-25T02:20:32;7.90;;;2.47;;
51987;SDS011;38003;52.012;4.346;2023-04-25T02:23:01;11.40;;;2.70;;
51987;SDS011;38003;52.012;4.346;2023-04-25T02:25:29;13.50;;;2.63;;
51987;SDS011;38003;52.012;4.346;2023-04-25T02:27:57;9.03;;;2.67;;
51987;SDS011;38003;52.012;4.346;2023-04-25T02:30:27;7.67;;;2.17;;
51987;SDS011;38003;52.012;4.346;2023-04-25T02:32:55;12.07;;;2.53;;
51987;SDS011;38003;52.012;4.346;2023-04-25T02:35:23;10.87;;;2.50;;
51987;SDS011;38003;52.012;4.346;2023-04-25T02:37:51;8.27;;;2.03;;
51987;SDS011;38003;52.012;4.346;2023-04-25T02:40:19;12.43;;;2.33;;
51987;SDS011;38003;52.012;4.346;2023-04-25T02:42:48;9.10;;;2.60;;
51987;SDS011;38003;52.012;4.346;2023-04-25T02:45:16;12.03;;;2.30;;
51987;SDS011;38003;52.012;4.346;2023-04-25T02:47:46;12.27;;;2.10;;
51987;SDS011;38003;52.012;4.346;2023-04-25T02:50:14;9.93;;;2.23;;
51987;SDS011;38003;52.012;4.346;2023-04-25T02:52:43;6.20;;;1.93;;
51987;SDS011;38003;52.012;4.346;2023-04-25T02:55:12;10.80;;;2.10;;
51987;SDS011;38003;52.012;4.346;2023-04-25T02:57:40;8.13;;;1.70;;
51987;SDS011;38003;52.012;4.346;2023-04-25T03:00:09;10.17;;;2.30;;
51987;SDS011;38003;52.012;4.346;2023-04-25T03:02:40;7.63;;;1.87;;
51987;SDS011;38003;52.012;4.346;2023-04-25T03:05:10;9.03;;;2.10;;
51987;SDS011;38003;52.012;4.346;2023-04-25T03:07:38;10.33;;;1.87;;
51987;SDS011;38003;52.012;4.346;2023-04-25T03:10:07;10.17;;;2.00;;
51987;SDS011;38003;52.012;4.346;2023-04-25T03:12:35;8.90;;;2.40;;
51987;SDS011;38003;52.012;4.346;2023-04-25T03:15:04;8.13;;;1.80;;
51987;SDS011;38003;52.012;4.346;2023-04-25T03:17:32;4.93;;;1.77;;
51987;SDS011;38003;52.012;4.346;2023-04-25T03:20:00;7.83;;;1.60;;
51987;SDS011;38003;52.012;4.346;2023-04-25T03:22:31;7.23;;;1.80;;
51987;SDS011;38003;52.012;4.346;2023-04-25T03:24:59;5.90;;;1.77;;
51987;SDS011;38003;52.012;4.346;2023-04-25T03:27:27;11.00;;;1.97;;
51987;SDS011;38003;52.012;4.346;2023-04-25T03:29:55;7.27;;;1.97;;
51987;SDS011;38003;52.012;4.346;2023-04-25T03:32:24;8.20;;;2.40;;
51987;SDS011;38003;52.012;4.346;2023-04-25T03:34:52;11.07;;;2.33;;
51987;SDS011;38003;52.012;4.346;2023-04-25T03:37:20;8.87;;;1.80;;
51987;SDS011;38003;52.012;4.346;2023-04-25T03:39:50;5.07;;;1.77;;
51987;SDS011;38003;52.012;4.346;2023-04-25T03:42:18;11.10;;;2.17;;
51987;SDS011;38003;52.012;4.346;2023-04-25T03:44:49;8.10;;;2.00;;
51987;SDS011;38003;52.012;4.346;2023-04-25T03:47:17;10.20;;;1.73;;
51987;SDS011;38003;52.012;4.346;2023-04-25T03:49:45;9.20;;;2.03;;
51987;SDS011;38003;52.012;4.346;2023-04-25T03:52:15;14.57;;;2.13;;
51987;SDS011;38003;52.012;4.346;2023-04-25T03:54:43;7.53;;;2.03;;
51987;SDS011;38003;52.012;4.346;2023-04-25T03:57:13;6.17;;;1.60;;
51987;SDS011;38003;52.012;4.346;2023-04-25T03:59:41;11.23;;;2.30;;
51987;SDS011;38003;52.012;4.346;2023-04-25T04:02:09;3.83;;;1.40;;
51987;SDS011;38003;52.012;4.346;2023-04-25T04:04:37;6.70;;;1.50;;
51987;SDS011;38003;52.012;4.346;2023-04-25T04:07:06;8.30;;;1.57;;
51987;SDS011;38003;52.012;4.346;2023-04-25T04:09:34;6.20;;;1.80;;
51987;SDS011;38003;52.012;4.346;2023-04-25T04:12:03;5.90;;;1.70;;
51987;SDS011;38003;52.012;4.346;2023-04-25T04:14:32;8.00;;;1.60;;
51987;SDS011;38003;52.012;4.346;2023-04-25T04:17:00;5.43;;;1.30;;
51987;SDS011;38003;52.012;4.346;2023-04-25T04:19:28;10.03;;;1.90;;
51987;SDS011;38003;52.012;4.346;2023-04-25T04:21:57;4.07;;;1.50;;
51987;SDS011;38003;52.012;4.346;2023-04-25T04:24:25;6.37;;;1.73;;
51987;SDS011;38003;52.012;4.346;2023-04-25T04:26:53;6.67;;;1.70;;
51987;SDS011;38003;52.012;4.346;2023-04-25T04:29:22;9.57;;;1.83;;
51987;SDS011;38003;52.012;4.346;2023-04-25T04:31:52;6.60;;;1.57;;
51987;SDS011;38003;52.012;4.346;2023-04-25T04:34:20;9.03;;;2.00;;
51987;SDS011;38003;52.012;4.346;2023-04-25T04:36:50;7.53;;;2.00;;
51987;SDS011;38003;52.012;4.346;2023-04-25T04:39:19;11.43;;;2.87;;
51987;SDS011;38003;52.012;4.346;2023-04-25T04:41:47;7.93;;;2.03;;
51987;SDS011;38003;52.012;4.346;2023-04-25T04:44:16;9.10;;;2.00;;
51987;SDS011;38003;52.012;4.346;2023-04-25T04:46:44;8.50;;;2.10;;
51987;SDS011;38003;52.012;4.346;2023-04-25T04:49:14;8.63;;;2.03;;
51987;SDS011;38003;52.012;4.346;2023-04-25T04:51:43;10.10;;;2.20;;
51987;SDS011;38003;52.012;4.346;2023-04-25T04:54:12;12.70;;;2.37;;
51987;SDS011;38003;52.012;4.346;2023-04-25T04:56:40;7.67;;;2.00;;
51987;SDS011;38003;52.012;4.346;2023-04-25T04:59:08;13.10;;;2.30;;
51987;SDS011;38003;52.012;4.346;2023-04-25T05:01:37;9.53;;;2.33;;
51987;SDS011;38003;52.012;4.346;2023-04-25T05:04:05;10.13;;;2.77;;
51987;SDS011;38003;52.012;4.346;2023-04-25T05:06:35;11.50;;;2.27;;
51987;SDS011;38003;52.012;4.346;2023-04-25T05:09:04;9.97;;;2.03;;
51987;SDS011;38003;52.012;4.346;2023-04-25T05:11:32;9.93;;;2.40;;
51987;SDS011;38003;52.012;4.346;2023-04-25T05:14:00;5.40;;;1.80;;
51987;SDS011;38003;52.012;4.346;2023-04-25T05:16:28;7.10;;;1.47;;
51987;SDS011;38003;52.012;4.346;2023-04-25T05:18:56;7.63;;;2.10;;
51987;SDS011;38003;52.012;4.346;2023-04-25T05:21:25;7.27;;;1.50;;
51987;SDS011;38003;52.012;4.346;2023-04-25T05:23:54;6.87;;;1.80;;
51987;SDS011;38003;52.012;4.346;2023-04-25T05:26:23;9.73;;;1.67;;
51987;SDS011;38003;52.012;4.346;2023-04-25T05:28:51;3.87;;;1.37;;
51987;SDS011;38003;52.012;4.346;2023-04-25T05:31:19;5.10;;;1.63;;
51987;SDS011;38003;52.012;4.346;2023-04-25T05:33:47;3.17;;;1.37;;
51987;SDS011;38003;52.012;4.346;2023-04-25T05:36:16;3.17;;;1.37;;
51987;SDS011;38003;52.012;4.346;2023-04-25T05:38:44;4.27;;;1.30;;
51987;SDS011;38003;52.012;4.346;2023-04-25T05:41:14;6.43;;;1.40;;
51987;SDS011;38003;52.012;4.346;2023-04-25T05:43:42;5.67;;;1.40;;
51987;SDS011;38003;52.012;4.346;2023-04-25T05:46:13;6.53;;;1.77;;
51987;SDS011;38003;52.012;4.346;2023-04-25T05:48:43;4.90;;;1.57;;
51987;SDS011;38003;52.012;4.346;2023-04-25T05:51:11;8.53;;;1.63;;
51987;SDS011;38003;52.012;4.346;2023-04-25T05:53:39;5.03;;;1.93;;
51987;SDS011;38003;52.012;4.346;2023-04-25T05:56:07;6.80;;;1.67;;
51987;SDS011;38003;52.012;4.346;2023-04-25T05:58:37;3.63;;;1.20;;
51987;SDS011;38003;52.012;4.346;2023-04-25T06:01:05;6.53;;;1.70;;
51987;SDS011;38003;52.012;4.346;2023-04-25T06:03:33;8.73;;;1.83;;
51987;SDS011;38003;52.012;4.346;2023-04-25T06:06:04;7.77;;;1.53;;
51987;SDS011;38003;52.012;4.346;2023-04-25T06:08:32;5.07;;;1.30;;
51987;SDS011;38003;52.012;4.346;2023-04-25T06:11:00;8.07;;;1.50;;
51987;SDS011;38003;52.012;4.346;2023-04-25T06:13:28;10.07;;;1.93;;
51987;SDS011;38003;52.012;4.346;2023-04-25T06:15:58;5.93;;;1.33;;
51987;SDS011;38003;52.012;4.346;2023-04-25T06:18:27;9.20;;;2.40;;
51987;SDS011;38003;52.012;4.346;2023-04-25T06:20:55;7.07;;;1.47;;
51987;SDS011;38003;52.012;4.346;2023-04-25T06:23:23;10.33;;;1.83;;
51987;SDS011;38003;52.012;4.346;2023-04-25T06:25:51;9.27;;;2.43;;
51987;SDS011;38003;52.012;4.346;2023-04-25T06:28:19;6.47;;;2.17;;
51987;SDS011;38003;52.012;4.346;2023-04-25T06:30:49;8.97;;;1.83;;
51987;SDS011;38003;52.012;4.346;2023-04-25T06:33:19;5.87;;;1.87;;
51987;SDS011;38003;52.012;4.346;2023-04-25T06:35:47;5.87;;;1.43;;
51987;SDS011;38003;52.012;4.346;2023-04-25T06:38:15;6.97;;;2.43;;
51987;SDS011;38003;52.012;4.346;2023-04-25T06:40:44;6.80;;;1.50;;
51987;SDS011;38003;52.012;4.346;2023-04-25T06:43:12;8.43;;;1.70;;
51987;SDS011;38003;52.012;4.346;2023-04-25T06:45:40;8.00;;;1.50;;
51987;SDS011;38003;52.012;4.346;2023-04-25T06:48:11;6.77;;;2.07;;
51987;SDS011;38003;52.012;4.346;2023-04-25T06:50:41;4.90;;;1.57;;
51987;SDS011;38003;52.012;4.346;2023-04-25T06:53:09;5.70;;;2.10;;
51987;SDS011;38003;52.012;4.346;2023-04-25T06:55:37;7.73;;;2.03;;
51987;SDS011;38003;52.012;4.346;2023-04-25T06:58:06;6.87;;;2.03;;
51987;SDS011;38003;52.012;4.346;2023-04-25T07:00:34;9.03;;;1.60;;
51987;SDS011;38003;52.012;4.346;2023-04-25T07:03:03;6.33;;;1.57;;
51987;SDS011;38003;52.012;4.346;2023-04-25T07:05:31;5.80;;;1.53;;
51987;SDS011;38003;52.012;4.346;2023-04-25T07:08:01;6.70;;;1.50;;
51987;SDS011;38003;52.012;4.346;2023-04-25T07:10:29;6.60;;;1.27;;
51987;SDS011;38003;52.012;4.346;2023-04-25T07:12:58;6.87;;;1.20;;
51987;SDS011;38003;52.012;4.346;2023-04-25T07:15:26;6.23;;;1.60;;
51987;SDS011;38003;52.012;4.346;2023-04-25T07:17:54;7.33;;;2.23;;
51987;SDS011;38003;52.012;4.346;2023-04-25T07:20:22;6.00;;;1.60;;
51987;SDS011;38003;52.012;4.346;2023-04-25T07:22:50;8.13;;;1.70;;
51987;SDS011;38003;52.012;4.346;2023-04-25T07:25:20;4.23;;;1.10;;
51987;SDS011;38003;52.012;4.346;2023-04-25T07:27:48;5.80;;;1.30;;
51987;SDS011;38003;52.012;4.346;2023-04-25T07:30:16;5.47;;;1.30;;
51987;SDS011;38003;52.012;4.346;2023-04-25T07:32:45;4.67;;;1.30;;
51987;SDS011;38003;52.012;4.346;2023-04-25T07:35:13;4.63;;;1.47;;
51987;SDS011;38003;52.012;4.346;2023-04-25T07:37:42;4.87;;;1.00;;
51987;SDS011;38003;52.012;4.346;2023-04-25T07:40:10;5.73;;;1.37;;
51987;SDS011;38003;52.012;4.346;2023-04-25T07:42:40;6.30;;;1.00;;
51987;SDS011;38003;52.012;4.346;2023-04-25T07:45:09;5.73;;;1.50;;
51987;SDS011;38003;52.012;4.346;2023-04-25T07:47:37;5.13;;;1.10;;
51987;SDS011;38003;52.012;4.346;2023-04-25T07:50:05;6.13;;;1.10;;
51987;SDS011;38003;52.012;4.346;2023-04-25T07:52:34;6.07;;;1.13;;
51987;SDS011;38003;52.012;4.346;2023-04-25T07:55:02;5.93;;;1.57;;
51987;SDS011;38003;52.012;4.346;2023-04-25T07:57:30;6.20;;;1.20;;
51987;SDS011;38003;52.012;4.346;2023-04-25T08:00:00;5.97;;;1.13;;
51987;SDS011;38003;52.012;4.346;2023-04-25T08:02:28;6.57;;;1.50;;
51987;SDS011;38003;52.012;4.346;2023-04-25T08:04:57;7.23;;;1.20;;
51987;SDS011;38003;52.012;4.346;2023-04-25T08:07:25;4.00;;;1.10;;
51987;SDS011;38003;52.012;4.346;2023-04-25T08:09:53;7.00;;;1.33;;
51987;SDS011;38003;52.012;4.346;2023-04-25T08:12:22;2.83;;;1.00;;
51987;SDS011;38003;52.012;4.346;2023-04-25T08:14:50;3.83;;;1.07;;
51987;SDS011;38003;52.012;4.346;2023-04-25T08:17:19;4.80;;;0.80;;
51987;SDS011;38003;52.012;4.346;2023-04-25T08:19:48;3.17;;;0.87;;
51987;SDS011;38003;52.012;4.346;2023-04-25T08:22:16;5.37;;;1.20;;
51987;SDS011;38003;52.012;4.346;2023-04-25T08:24:44;4.53;;;0.90;;
51987;SDS011;38003;52.012;4.346;2023-04-25T08:27:12;8.47;;;1.37;;
51987;SDS011;38003;52.012;4.346;2023-04-25T08:29:41;7.63;;;1.33;;
51987;SDS011;38003;52.012;4.346;2023-04-25T08:32:09;6.63;;;1.10;;
51987;SDS011;38003;52.012;4.346;2023-04-25T08:34:39;5.93;;;1.53;;
51987;SDS011;38003;52.012;4.346;2023-04-25T08:37:08;10.03;;;1.37;;
51987;SDS011;38003;52.012;4.346;2023-04-25T08:39:36;7.10;;;1.23;;
51987;SDS011;38003;52.012;4.346;2023-04-25T08:42:05;6.53;;;1.20;;
51987;SDS011;38003;52.012;4.346;2023-04-25T08:44:34;3.27;;;1.17;;
51987;SDS011;38003;52.012;4.346;2023-04-25T08:47:03;4.60;;;1.17;;
51987;SDS011;38003;52.012;4.346;2023-04-25T08:49:32;6.90;;;1.40;;
51987;SDS011;38003;52.012;4.346;2023-04-25T08:52:02;5.00;;;1.10;;
51987;SDS011;38003;52.012;4.346;2023-04-25T08:54:32;4.97;;;1.40;;
51987;SDS011;38003;52.012;4.346;2023-04-25T08:57:03;3.43;;;1.03;;
51987;SDS011;38003;52.012;4.346;2023-04-25T08:59:31;4.67;;;1.43;;
51987;SDS011;38003;52.012;4.346;2023-04-25T09:02:03;4.67;;;1.60;;
51987;SDS011;38003;52.012;4.346;2023-04-25T09:04:31;4.77;;;1.30;;
51987;SDS011;38003;52.012;4.346;2023-04-25T09:06:59;4.47;;;1.00;;
51987;SDS011;38003;52.012;4.346;2023-04-25T09:09:29;6.00;;;1.70;;
51987;SDS011;38003;52.012;4.346;2023-04-25T09:11:57;6.03;;;1.40;;
51987;SDS011;38003;52.012;4.346;2023-04-25T09:14:27;3.77;;;0.90;;
51987;SDS011;38003;52.012;4.346;2023-04-25T09:16:59;4.83;;;1.10;;
51987;SDS011;38003;52.012;4.346;2023-04-25T09:19:29;3.43;;;0.83;;
51987;SDS011;38003;52.012;4.346;2023-04-25T09:22:07;6.33;;;1.10;;
51987;SDS011;38003;52.012;4.346;2023-04-25T09:24:37;5.63;;;1.00;;
51987;SDS011;38003;52.012;4.346;2023-04-25T09:27:07;4.33;;;1.50;;
51987;SDS011;38003;52.012;4.346;2023-04-25T09:29:36;3.53;;;1.00;;
51987;SDS011;38003;52.012;4.346;2023-04-25T09:32:11;5.50;;;1.23;;
51987;SDS011;38003;52.012;4.346;2023-04-25T09:34:40;6.73;;;1.50;;
51987;SDS011;38003;52.012;4.346;2023-04-25T09:37:08;7.50;;;1.50;;
51987;SDS011;38003;52.012;4.346;2023-04-25T09:39:39;4.23;;;1.10;;
51987;SDS011;38003;52.012;4.346;2023-04-25T09:42:07;4.40;;;1.10;;
51987;SDS011;38003;52.012;4.346;2023-04-25T09:44:37;5.17;;;1.13;;
51987;SDS011;38003;52.012;4.346;2023-04-25T09:47:10;5.03;;;1.60;;
51987;SDS011;38003;52.012;4.346;2023-04-25T09:49:39;4.60;;;1.07;;
51987;SDS011;38003;52.012;4.346;2023-04-25T09:52:09;5.13;;;1.40;;
51987;SDS011;38003;52.012;4.346;2023-04-25T09:54:38;5.67;;;1.33;;
51987;SDS011;38003;52.012;4.346;2023-04-25T09:57:09;5.37;;;1.30;;
51987;SDS011;38003;52.012;4.346;2023-04-25T09:59:38;7.80;;;1.33;;
51987;SDS011;38003;52.012;4.346;2023-04-25T10:02:07;2.83;;;1.10;;
51987;SDS011;38003;52.012;4.346;2023-04-25T10:04:36;6.10;;;1.57;;
51987;SDS011;38003;52.012;4.346;2023-04-25T10:07:06;6.40;;;1.20;;
51987;SDS011;38003;52.012;4.346;2023-04-25T10:09:36;5.97;;;1.27;;
51987;SDS011;38003;52.012;4.346;2023-04-25T10:12:07;9.87;;;1.63;;
51987;SDS011;38003;52.012;4.346;2023-04-25T10:14:35;6.90;;;1.10;;
51987;SDS011;38003;52.012;4.346;2023-04-25T10:17:03;9.00;;;2.40;;
51987;SDS011;38003;52.012;4.346;2023-04-25T10:19:32;5.77;;;1.37;;
51987;SDS011;38003;52.012;4.346;2023-04-25T10:22:04;10.57;;;1.57;;
51987;SDS011;38003;52.012;4.346;2023-04-25T10:24:34;6.50;;;1.40;;
51987;SDS011;38003;52.012;4.346;2023-04-25T10:27:03;5.40;;;1.20;;
51987;SDS011;38003;52.012;4.346;2023-04-25T10:29:34;5.97;;;1.20;;
51987;SDS011;38003;52.012;4.346;2023-04-25T10:32:03;5.27;;;1.43;;
51987;SDS011;38003;52.012;4.346;2023-04-25T10:34:38;5.87;;;1.37;;
51987;SDS011;38003;52.012;4.346;2023-04-25T10:37:08;10.43;;;1.80;;
51987;SDS011;38003;52.012;4.346;2023-04-25T10:39:37;6.73;;;1.37;;
51987;SDS011;38003;52.012;4.346;2023-04-25T10:42:06;7.87;;;1.53;;
51987;SDS011;38003;52.012;4.346;2023-04-25T10:44:36;6.63;;;1.60;;
51987;SDS011;38003;52.012;4.346;2023-04-25T10:47:06;7.83;;;1.70;;
51987;SDS011;38003;52.012;4.346;2023-04-25T10:49:36;3.83;;;1.23;;
51987;SDS011;38003;52.012;4.346;2023-04-25T10:52:15;7.73;;;1.53;;
51987;SDS011;38003;52.012;4.346;2023-04-25T10:54:46;5.60;;;1.53;;
51987;SDS011;38003;52.012;4.346;2023-04-25T10:57:32;7.97;;;1.50;;
51987;SDS011;38003;52.012;4.346;2023-04-25T11:00:10;6.30;;;1.50;;
51987;SDS011;38003;52.012;4.346;2023-04-25T11:02:41;4.00;;;1.30;;
51987;SDS011;38003;52.012;4.346;2023-04-25T11:05:15;7.80;;;1.03;;
51987;SDS011;38003;52.012;4.346;2023-04-25T11:07:48;5.33;;;1.10;;
51987;SDS011;38003;52.012;4.346;2023-04-25T11:10:37;4.87;;;1.23;;
51987;SDS011;38003;52.012;4.346;2023-04-25T11:13:07;6.67;;;1.37;;
51987;SDS011;38003;52.012;4.346;2023-04-25T11:15:37;3.37;;;1.13;;
51987;SDS011;38003;52.012;4.346;2023-04-25T11:18:06;6.57;;;1.27;;
51987;SDS011;38003;52.012;4.346;2023-04-25T11:20:34;6.40;;;1.37;;
51987;SDS011;38003;52.012;4.346;2023-04-25T11:23:02;3.63;;;1.10;;
51987;SDS011;38003;52.012;4.346;2023-04-25T11:25:30;5.93;;;1.20;;
51987;SDS011;38003;52.012;4.346;2023-04-25T11:28:01;7.17;;;1.57;;
51987;SDS011;38003;52.012;4.346;2023-04-25T11:30:30;5.50;;;1.27;;
51987;SDS011;38003;52.012;4.346;2023-04-25T11:32:59;5.30;;;1.20;;
51987;SDS011;38003;52.012;4.346;2023-04-25T11:35:29;7.07;;;1.53;;
51987;SDS011;38003;52.012;4.346;2023-04-25T11:37:57;5.13;;;1.40;;
51987;SDS011;38003;52.012;4.346;2023-04-25T11:40:27;6.63;;;1.70;;
51987;SDS011;38003;52.012;4.346;2023-04-25T11:42:55;5.50;;;1.27;;
51987;SDS011;38003;52.012;4.346;2023-04-25T11:45:23;3.17;;;1.33;;
51987;SDS011;38003;52.012;4.346;2023-04-25T11:47:52;4.70;;;1.27;;
51987;SDS011;38003;52.012;4.346;2023-04-25T11:50:22;6.20;;;1.50;;
51987;SDS011;38003;52.012;4.346;2023-04-25T11:52:50;5.23;;;1.27;;
51987;SDS011;38003;52.012;4.346;2023-04-25T11:55:19;5.53;;;1.30;;
51987;SDS011;38003;52.012;4.346;2023-04-25T11:57:48;5.90;;;1.10;;
51987;SDS011;38003;52.012;4.346;2023-04-25T12:00:17;4.27;;;1.30;;
51987;SDS011;38003;52.012;4.346;2023-04-25T12:02:47;6.60;;;1.40;;
51987;SDS011;38003;52.012;4.346;2023-04-25T12:05:15;4.23;;;1.40;;
51987;SDS011;38003;52.012;4.346;2023-04-25T12:07:48;5.73;;;1.67;;
51987;SDS011;38003;52.012;4.346;2023-04-25T12:10:17;6.93;;;1.57;;
51987;SDS011;38003;52.012;4.346;2023-04-25T12:12:46;6.67;;;1.50;;
51987;SDS011;38003;52.012;4.346;2023-04-25T12:15:15;5.53;;;1.37;;
51987;SDS011;38003;52.012;4.346;2023-04-25T12:17:45;6.23;;;1.63;;
51987;SDS011;38003;52.012;4.346;2023-04-25T12:20:15;7.67;;;1.50;;
51987;SDS011;38003;52.012;4.346;2023-04-25T12:22:44;6.00;;;1.37;;
51987;SDS011;38003;52.012;4.346;2023-04-25T12:25:33;5.27;;;1.20;;
51987;SDS011;38003;52.012;4.346;2023-04-25T12:28:11;5.43;;;1.37;;
51987;SDS011;38003;52.012;4.346;2023-04-25T12:30:53;5.20;;;1.20;;
51987;SDS011;38003;52.012;4.346;2023-04-25T12:33:22;5.17;;;1.30;;
51987;SDS011;38003;52.012;4.346;2023-04-25T12:35:50;9.27;;;1.30;;
51987;SDS011;38003;52.012;4.346;2023-04-25T12:38:22;5.30;;;1.37;;
51987;SDS011;38003;52.012;4.346;2023-04-25T12:40:52;5.57;;;1.50;;
51987;SDS011;38003;52.012;4.346;2023-04-25T12:43:20;8.30;;;1.57;;
51987;SDS011;38003;52.012;4.346;2023-04-25T12:45:49;3.60;;;0.90;;
51987;SDS011;38003;52.012;4.346;2023-04-25T12:48:17;3.03;;;1.53;;
51987;SDS011;38003;52.012;4.346;2023-04-25T12:50:46;3.83;;;1.00;;
51987;SDS011;38003;52.012;4.346;2023-04-25T12:53:15;5.07;;;1.57;;
51987;SDS011;38003;52.012;4.346;2023-04-25T12:55:43;4.30;;;1.33;;
51987;SDS011;38003;52.012;4.346;2023-04-25T12:58:14;6.17;;;1.40;;
51987;SDS011;38003;52.012;4.346;2023-04-25T13:00:42;4.93;;;1.30;;
51987;SDS011;38003;52.012;4.346;2023-04-25T13:03:10;6.27;;;1.37;;
51987;SDS011;38003;52.012;4.346;2023-04-25T13:05:39;7.37;;;1.40;;
51987;SDS011;38003;52.012;4.346;2023-04-25T13:08:08;5.20;;;1.30;;
51987;SDS011;38003;52.012;4.346;2023-04-25T13:10:36;3.57;;;1.33;;
51987;SDS011;38003;52.012;4.346;2023-04-25T13:13:05;3.93;;;1.13;;
51987;SDS011;38003;52.012;4.346;2023-04-25T13:15:36;3.90;;;1.07;;
51987;SDS011;38003;52.012;4.346;2023-04-25T13:18:04;6.53;;;1.37;;
51987;SDS011;38003;52.012;4.346;2023-04-25T13:20:32;7.70;;;1.27;;
51987;SDS011;38003;52.012;4.346;2023-04-25T13:23:01;6.60;;;1.50;;
51987;SDS011;38003;52.012;4.346;2023-04-25T13:25:29;5.10;;;1.40;;
51987;SDS011;38003;52.012;4.346;2023-04-25T13:27:57;6.00;;;1.80;;
51987;SDS011;38003;52.012;4.346;2023-04-25T13:30:25;6.43;;;1.57;;
51987;SDS011;38003;52.012;4.346;2023-04-25T13:32:55;4.40;;;1.60;;
51987;SDS011;38003;52.012;4.346;2023-04-25T13:35:29;4.60;;;1.20;;
51987;SDS011;38003;52.012;4.346;2023-04-25T13:37:58;6.73;;;1.43;;
51987;SDS011;38003;52.012;4.346;2023-04-25T13:40:26;6.17;;;1.40;;
51987;SDS011;38003;52.012;4.346;2023-04-25T13:42:55;5.67;;;1.60;;
51987;SDS011;38003;52.012;4.346;2023-04-25T13:45:23;4.23;;;1.30;;
51987;SDS011;38003;52.012;4.346;2023-04-25T13:47:51;7.03;;;1.33;;
51987;SDS011;38003;52.012;4.346;2023-04-25T13:50:21;5.17;;;1.60;;
51987;SDS011;38003;52.012;4.346;2023-04-25T13:52:49;2.70;;;1.03;;
51987;SDS011;38003;52.012;4.346;2023-04-25T13:55:17;3.17;;;1.23;;
51987;SDS011;38003;52.012;4.346;2023-04-25T13:57:45;4.10;;;1.20;;
51987;SDS011;38003;52.012;4.346;2023-04-25T14:00:14;3.00;;;1.30;;
51987;SDS011;38003;52.012;4.346;2023-04-25T14:02:42;1.97;;;1.30;;
51987;SDS011;38003;52.012;4.346;2023-04-25T14:05:12;4.67;;;1.13;;
51987;SDS011;38003;52.012;4.346;2023-04-25T14:07:42;4.50;;;1.13;;
51987;SDS011;38003;52.012;4.346;2023-04-25T14:10:10;4.80;;;1.50;;
51987;SDS011;38003;52.012;4.346;2023-04-25T14:12:38;3.63;;;1.10;;
51987;SDS011;38003;52.012;4.346;2023-04-25T14:15:07;5.67;;;1.07;;
51987;SDS011;38003;52.012;4.346;2023-04-25T14:17:35;4.00;;;1.30;;
51987;SDS011;38003;52.012;4.346;2023-04-25T14:20:04;6.40;;;1.70;;
51987;SDS011;38003;52.012;4.346;2023-04-25T14:22:35;4.73;;;1.60;;
51987;SDS011;38003;52.012;4.346;2023-04-25T14:25:09;3.07;;;1.20;;
51987;SDS011;38003;52.012;4.346;2023-04-25T14:27:37;5.00;;;1.10;;
51987;SDS011;38003;52.012;4.346;2023-04-25T14:30:06;5.47;;;1.20;;
51987;SDS011;38003;52.012;4.346;2023-04-25T14:32:35;3.90;;;1.23;;
51987;SDS011;38003;52.012;4.346;2023-04-25T14:35:03;3.73;;;1.37;;
51987;SDS011;38003;52.012;4.346;2023-04-25T14:37:32;3.33;;;1.10;;
51987;SDS011;38003;52.012;4.346;2023-04-25T14:40:00;5.13;;;1.60;;
51987;SDS011;38003;52.012;4.346;2023-04-25T14:42:29;6.77;;;1.30;;
51987;SDS011;38003;52.012;4.346;2023-04-25T14:44:59;4.73;;;1.30;;
51987;SDS011;38003;52.012;4.346;2023-04-25T14:47:27;5.67;;;0.97;;
51987;SDS011;38003;52.012;4.346;2023-04-25T14:49:56;5.40;;;1.43;;
51987;SDS011;38003;52.012;4.346;2023-04-25T14:52:24;6.93;;;1.47;;
51987;SDS011;38003;52.012;4.346;2023-04-25T14:54:52;5.10;;;1.30;;
51987;SDS011;38003;52.012;4.346;2023-04-25T14:57:20;4.03;;;1.23;;